createdAt,value
2022-08-18T00:00:47.168Z,960.30
2022-08-18T00:01:47.183Z,960.27
2022-08-18T00:03:00.620Z,960.24
2022-08-18T00:03:57.048Z,960.36
2022-08-18T00:04:49.533Z,960.34
2022-08-18T00:05:47.128Z,960.42
2022-08-18T00:06:47.110Z,960.42
2022-08-18T00:07:47.332Z,960.46
2022-08-18T00:08:47.072Z,960.45
2022-08-18T00:09:47.063Z,960.48
2022-08-18T00:10:47.104Z,960.43
2022-08-18T00:11:47.063Z,960.44
2022-08-18T00:12:47.021Z,960.46
2022-08-18T00:13:47.015Z,960.47
2022-08-18T00:14:47.004Z,960.50
2022-08-18T00:15:49.058Z,960.54
2022-08-18T00:16:47.020Z,960.58
2022-08-18T00:17:46.992Z,960.65
2022-08-18T00:18:46.960Z,960.74
2022-08-18T00:19:48.333Z,960.77
2022-08-18T00:20:46.936Z,960.69
2022-08-18T00:21:46.980Z,960.71
2022-08-18T00:22:47.019Z,960.71
2022-08-18T00:23:46.899Z,960.69
2022-08-18T00:24:48.365Z,960.70
2022-08-18T00:25:46.871Z,960.69
2022-08-18T00:26:47.014Z,960.72
2022-08-18T00:27:46.872Z,960.72
2022-08-18T00:28:46.857Z,960.78
2022-08-18T00:29:46.826Z,960.78
2022-08-18T00:30:46.890Z,960.86
2022-08-18T00:31:47.836Z,960.79
2022-08-18T00:32:46.906Z,960.84
2022-08-18T00:33:46.812Z,960.81
2022-08-18T00:34:46.841Z,960.79
2022-08-18T00:35:46.760Z,960.72
2022-08-18T00:36:46.751Z,960.74
2022-08-18T00:37:46.792Z,960.66
2022-08-18T00:38:46.742Z,960.64
2022-08-18T00:39:47.836Z,960.63
2022-08-18T00:40:46.772Z,960.53
2022-08-18T00:41:46.763Z,960.52
2022-08-18T00:42:46.770Z,960.49
2022-08-18T00:43:46.672Z,960.48
2022-08-18T00:44:46.729Z,960.53
2022-08-18T00:45:46.667Z,960.54
2022-08-18T00:46:46.640Z,960.54
2022-08-18T00:47:46.623Z,960.57
2022-08-18T00:48:48.878Z,960.58
2022-08-18T00:49:46.602Z,960.59
2022-08-18T00:50:46.641Z,960.58
2022-08-18T00:51:46.625Z,960.60
2022-08-18T00:52:46.566Z,960.61
2022-08-18T00:53:46.557Z,960.65
2022-08-18T00:54:46.560Z,960.63
2022-08-18T00:55:53.802Z,960.65
2022-08-18T00:56:47.589Z,960.63
2022-08-18T00:57:46.618Z,960.65
2022-08-18T00:58:46.497Z,960.64
2022-08-18T00:59:47.015Z,960.67
2022-08-18T01:00:46.544Z,960.76
2022-08-18T01:01:46.469Z,960.71
2022-08-18T01:02:46.457Z,960.69
2022-08-18T01:03:46.448Z,960.66
2022-08-18T01:04:46.430Z,960.66
2022-08-18T01:05:46.446Z,960.71
2022-08-18T01:06:46.426Z,960.76
2022-08-18T01:07:46.415Z,960.86
2022-08-18T01:08:46.450Z,961.00
2022-08-18T01:09:46.371Z,960.94
2022-08-18T01:10:46.364Z,960.99
2022-08-18T01:11:46.371Z,960.94
2022-08-18T01:12:47.038Z,960.87
2022-08-18T01:13:46.370Z,960.88
2022-08-18T01:14:46.314Z,960.81
2022-08-18T01:15:46.302Z,960.74
2022-08-18T01:16:53.172Z,960.70
2022-08-18T01:17:47.339Z,960.70
2022-08-18T01:18:46.322Z,960.68
2022-08-18T01:19:46.312Z,960.68
2022-08-18T01:20:46.295Z,960.70
2022-08-18T01:21:46.234Z,960.64
2022-08-18T01:22:46.234Z,960.69
2022-08-18T01:23:46.251Z,960.70
2022-08-18T01:24:46.221Z,960.70
2022-08-18T01:25:46.188Z,960.67
2022-08-18T01:26:46.219Z,960.63
2022-08-18T01:27:46.556Z,960.65
2022-08-18T01:28:46.159Z,960.64
2022-08-18T01:29:46.152Z,960.64
2022-08-18T01:30:46.135Z,960.64
2022-08-18T01:31:54.952Z,960.59
2022-08-18T01:32:47.143Z,960.62
2022-08-18T01:33:46.118Z,960.58
2022-08-18T01:34:46.103Z,960.59
2022-08-18T01:35:46.116Z,960.59
2022-08-18T01:36:46.064Z,960.65
2022-08-18T01:37:46.084Z,960.72
2022-08-18T01:38:46.051Z,960.80
2022-08-18T01:41:11.213Z,960.91
2022-08-18T01:41:22.597Z,960.88
2022-08-18T01:41:47.058Z,960.95
2022-08-18T01:42:46.003Z,960.92
2022-08-18T01:43:45.982Z,960.98
2022-08-18T01:44:45.990Z,960.93
2022-08-18T01:45:46.089Z,960.91
2022-08-18T01:46:45.994Z,960.88
2022-08-18T01:47:47.684Z,960.86
2022-08-18T01:48:46.003Z,960.88
2022-08-18T01:49:45.917Z,960.88
2022-08-18T01:50:45.916Z,960.85
2022-08-18T01:51:45.897Z,960.79
2022-08-18T01:52:45.883Z,960.82
2022-08-18T01:53:45.932Z,960.83
2022-08-18T01:54:45.891Z,960.85
2022-08-18T01:55:45.866Z,960.85
2022-08-18T01:56:45.844Z,960.86
2022-08-18T01:57:45.902Z,960.86
2022-08-18T01:58:45.813Z,960.89
2022-08-18T01:59:45.865Z,960.82
2022-08-18T02:00:45.792Z,960.87
2022-08-18T02:01:50.368Z,960.80
2022-08-18T02:02:46.767Z,960.78
2022-08-18T02:03:45.756Z,960.77
2022-08-18T02:04:45.782Z,960.76
2022-08-18T02:05:45.813Z,960.77
2022-08-18T02:06:47.857Z,960.82
2022-08-18T02:07:45.798Z,960.85
2022-08-18T02:08:46.461Z,960.90
2022-08-18T02:09:46.687Z,960.91
2022-08-18T02:10:45.678Z,960.88
2022-08-18T02:11:45.703Z,960.92
2022-08-18T02:12:45.681Z,960.95
2022-08-18T02:13:45.662Z,960.94
2022-08-18T02:14:45.670Z,960.94
2022-08-18T02:15:45.623Z,960.92
2022-08-18T02:16:45.635Z,960.93
2022-08-18T02:17:45.814Z,960.93
2022-08-18T02:18:48.415Z,960.96
2022-08-18T02:19:45.617Z,960.92
2022-08-18T02:20:45.563Z,960.89
2022-08-18T02:21:45.557Z,960.80
2022-08-18T02:22:45.539Z,960.78
2022-08-18T02:23:53.062Z,960.79
2022-08-18T02:24:46.564Z,960.75
2022-08-18T02:25:45.520Z,960.81
2022-08-18T02:26:45.502Z,960.73
2022-08-18T02:27:45.629Z,960.73
2022-08-18T02:28:45.475Z,960.72
2022-08-18T02:29:45.491Z,960.73
2022-08-18T02:30:45.489Z,960.73
2022-08-18T02:31:45.437Z,960.84
2022-08-18T02:32:45.465Z,960.85
2022-08-18T02:33:52.002Z,960.90
2022-08-18T02:34:46.445Z,960.86
2022-08-18T02:35:45.406Z,960.86
2022-08-18T02:36:45.415Z,960.82
2022-08-18T02:37:45.369Z,960.74
2022-08-18T02:38:45.357Z,960.72
2022-08-18T02:39:46.401Z,960.61
2022-08-18T02:40:45.354Z,960.62
2022-08-18T02:41:45.363Z,960.58
2022-08-18T02:42:45.341Z,960.62
2022-08-18T02:43:45.299Z,960.72
2022-08-18T02:44:45.289Z,960.78
2022-08-18T02:45:45.285Z,960.83
2022-08-18T02:46:45.314Z,960.83
2022-08-18T02:47:45.406Z,960.84
2022-08-18T02:48:45.243Z,960.81
2022-08-18T02:49:45.231Z,960.81
2022-08-18T02:50:45.223Z,960.75
2022-08-18T02:51:45.226Z,960.78
2022-08-18T02:52:45.247Z,960.77
2022-08-18T02:53:45.210Z,960.74
2022-08-18T02:54:45.175Z,960.76
2022-08-18T02:55:45.162Z,960.74
2022-08-18T02:56:45.197Z,960.66
2022-08-18T02:57:45.181Z,960.68
2022-08-18T02:58:45.136Z,960.67
2022-08-18T02:59:47.323Z,960.68
2022-08-18T03:00:45.107Z,960.68
2022-08-18T03:01:45.284Z,960.64
2022-08-18T03:02:45.105Z,960.63
2022-08-18T03:03:45.090Z,960.64
2022-08-18T03:04:45.099Z,960.68
2022-08-18T03:05:45.050Z,960.69
2022-08-18T03:06:45.330Z,960.66
2022-08-18T03:07:45.106Z,960.69
2022-08-18T03:08:45.027Z,960.66
2022-08-18T03:09:45.046Z,960.65
2022-08-18T03:10:44.993Z,960.65
2022-08-18T03:11:44.980Z,960.68
2022-08-18T03:12:44.977Z,960.73
2022-08-18T03:13:44.975Z,960.73
2022-08-18T03:14:44.987Z,960.68
2022-08-18T03:15:44.948Z,960.72
2022-08-18T03:16:53.171Z,960.71
2022-08-18T03:17:45.918Z,960.71
2022-08-18T03:18:44.904Z,960.74
2022-08-18T03:19:44.926Z,960.77
2022-08-18T03:20:44.900Z,960.81
2022-08-18T03:21:44.867Z,960.79
2022-08-18T03:22:44.856Z,960.81
2022-08-18T03:23:44.845Z,960.77
2022-08-18T03:24:45.879Z,960.71
2022-08-18T03:25:44.835Z,960.68
2022-08-18T03:26:44.826Z,960.75
2022-08-18T03:27:44.876Z,960.71
2022-08-18T03:28:44.788Z,960.78
2022-08-18T03:29:44.775Z,960.83
2022-08-18T03:30:44.879Z,960.90
2022-08-18T03:31:44.788Z,960.93
2022-08-18T03:32:45.862Z,960.83
2022-08-18T03:33:44.728Z,960.79
2022-08-18T03:34:44.718Z,960.75
2022-08-18T03:35:44.716Z,960.70
2022-08-18T03:36:44.753Z,960.69
2022-08-18T03:37:44.749Z,960.62
2022-08-18T03:38:44.701Z,960.61
2022-08-18T03:39:45.701Z,960.57
2022-08-18T03:40:44.649Z,960.57
2022-08-18T03:41:59.702Z,960.59
2022-08-18T03:42:45.670Z,960.60
2022-08-18T03:43:50.963Z,960.64
2022-08-18T03:44:45.606Z,960.68
2022-08-18T03:45:44.594Z,960.66
2022-08-18T03:46:44.589Z,960.71
2022-08-18T03:47:44.604Z,960.64
2022-08-18T03:48:44.567Z,960.67
2022-08-18T03:49:44.594Z,960.65
2022-08-18T03:50:44.544Z,960.65
2022-08-18T03:51:44.528Z,960.70
2022-08-18T03:52:44.528Z,960.66
2022-08-18T03:53:44.516Z,960.67
2022-08-18T03:54:44.538Z,960.65
2022-08-18T03:55:44.482Z,960.64
2022-08-18T03:56:44.486Z,960.63
2022-08-18T03:57:44.560Z,960.61
2022-08-18T03:58:44.464Z,960.55
2022-08-18T03:59:44.457Z,960.58
2022-08-18T04:00:44.596Z,960.59
2022-08-18T04:01:44.494Z,960.60
2022-08-18T04:02:44.410Z,960.65
2022-08-18T04:03:44.399Z,960.63
2022-08-18T04:04:44.403Z,960.63
2022-08-18T04:05:44.413Z,960.61
2022-08-18T04:06:44.355Z,960.60
2022-08-18T04:07:44.470Z,960.62
2022-08-18T04:08:44.334Z,960.54
2022-08-18T04:09:44.360Z,960.51
2022-08-18T04:10:44.330Z,960.44
2022-08-18T04:11:44.444Z,960.40
2022-08-18T04:12:44.288Z,960.38
2022-08-18T04:13:44.277Z,960.35
2022-08-18T04:14:44.271Z,960.35
2022-08-18T04:15:44.286Z,960.41
2022-08-18T04:16:44.275Z,960.35
2022-08-18T04:18:06.064Z,960.38
2022-08-18T04:18:45.229Z,960.37
2022-08-18T04:19:44.209Z,960.41
2022-08-18T04:20:58.968Z,960.48
2022-08-18T04:21:45.205Z,960.52
2022-08-18T04:22:44.225Z,960.55
2022-08-18T04:23:44.452Z,960.53
2022-08-18T04:24:44.150Z,960.54
2022-08-18T04:25:44.144Z,960.57
2022-08-18T04:26:44.139Z,960.53
2022-08-18T04:27:44.158Z,960.56
2022-08-18T04:28:44.105Z,960.50
2022-08-18T04:29:44.100Z,960.52
2022-08-18T04:30:44.083Z,960.49
2022-08-18T04:31:44.090Z,960.45
2022-08-18T04:32:44.097Z,960.43
2022-08-18T04:33:44.094Z,960.43
2022-08-18T04:34:44.038Z,960.39
2022-08-18T04:35:44.033Z,960.38
2022-08-18T04:36:44.047Z,960.35
2022-08-18T04:37:44.018Z,960.36
2022-08-18T04:38:44.014Z,960.38
2022-08-18T04:39:44.025Z,960.40
2022-08-18T04:40:44.028Z,960.41
2022-08-18T04:41:44.147Z,960.51
2022-08-18T04:42:43.955Z,960.42
2022-08-18T04:43:43.946Z,960.41
2022-08-18T04:44:43.955Z,960.41
2022-08-18T04:45:43.959Z,960.41
2022-08-18T04:46:43.899Z,960.41
2022-08-18T04:47:43.891Z,960.36
2022-08-18T04:48:43.905Z,960.35
2022-08-18T04:49:43.897Z,960.31
2022-08-18T04:50:43.880Z,960.27
2022-08-18T04:52:34.204Z,960.34
2022-08-18T04:52:44.876Z,960.30
2022-08-18T04:53:43.826Z,960.32
2022-08-18T04:54:43.842Z,960.36
2022-08-18T04:55:43.839Z,960.36
2022-08-18T04:56:43.837Z,960.38
2022-08-18T04:57:43.775Z,960.44
2022-08-18T04:58:43.764Z,960.46
2022-08-18T04:59:43.796Z,960.47
2022-08-18T05:00:43.829Z,960.48
2022-08-18T05:01:43.832Z,960.48
2022-08-18T05:02:43.782Z,960.48
2022-08-18T05:03:50.465Z,960.49
2022-08-18T05:04:44.700Z,960.55
2022-08-18T05:05:43.767Z,960.56
2022-08-18T05:06:43.694Z,960.58
2022-08-18T05:07:43.703Z,960.64
2022-08-18T05:08:43.652Z,960.64
2022-08-18T05:09:43.649Z,960.60
2022-08-18T05:10:43.640Z,960.60
2022-08-18T05:11:43.622Z,960.61
2022-08-18T05:12:43.645Z,960.61
2022-08-18T05:13:43.645Z,960.59
2022-08-18T05:14:43.580Z,960.66
2022-08-18T05:16:07.360Z,960.67
2022-08-18T05:16:48.709Z,960.69
2022-08-18T05:17:44.550Z,960.70
2022-08-18T05:18:43.543Z,960.72
2022-08-18T05:19:44.255Z,960.75
2022-08-18T05:20:43.868Z,960.81
2022-08-18T05:21:43.510Z,960.81
2022-08-18T05:22:43.492Z,960.87
2022-08-18T05:23:43.530Z,960.86
2022-08-18T05:24:43.467Z,960.89
2022-08-18T05:25:43.652Z,960.83
2022-08-18T05:26:43.444Z,960.86
2022-08-18T05:27:43.448Z,960.85
2022-08-18T05:28:43.439Z,960.85
2022-08-18T05:29:45.946Z,960.89
2022-08-18T05:30:43.669Z,960.90
2022-08-18T05:31:43.390Z,960.93
2022-08-18T05:32:48.557Z,960.92
2022-08-18T05:33:44.410Z,960.89
2022-08-18T05:34:43.358Z,960.85
2022-08-18T05:35:43.345Z,960.83
2022-08-18T05:36:43.337Z,960.81
2022-08-18T05:37:43.351Z,960.84
2022-08-18T05:38:43.320Z,960.81
2022-08-18T05:39:43.366Z,960.80
2022-08-18T05:40:43.316Z,960.76
2022-08-18T05:41:43.278Z,960.81
2022-08-18T05:42:43.267Z,960.81
2022-08-18T05:43:51.955Z,960.78
2022-08-18T05:44:44.253Z,960.77
2022-08-18T05:45:43.277Z,960.86
2022-08-18T05:46:43.237Z,960.82
2022-08-18T05:47:43.211Z,960.85
2022-08-18T05:48:43.241Z,960.89
2022-08-18T05:49:43.200Z,960.86
2022-08-18T05:50:43.209Z,960.93
2022-08-18T05:51:43.178Z,960.95
2022-08-18T05:52:43.157Z,960.97
2022-08-18T05:53:43.186Z,961.05
2022-08-18T05:54:43.128Z,961.01
2022-08-18T05:55:47.636Z,961.01
2022-08-18T05:56:43.121Z,961.07
2022-08-18T05:57:43.119Z,961.08
2022-08-18T05:58:43.086Z,961.06
2022-08-18T05:59:43.106Z,961.04
2022-08-18T06:00:43.102Z,961.05
2022-08-18T06:01:43.053Z,961.03
2022-08-18T06:02:43.097Z,961.06
2022-08-18T06:03:46.606Z,961.04
2022-08-18T06:04:43.019Z,961.01
2022-08-18T06:05:43.039Z,960.96
2022-08-18T06:06:47.334Z,960.94
2022-08-18T06:07:42.992Z,960.88
2022-08-18T06:08:43.001Z,960.88
2022-08-18T06:09:43.008Z,960.90
2022-08-18T06:10:42.948Z,960.96
2022-08-18T06:11:42.938Z,960.99
2022-08-18T06:12:46.889Z,961.03
2022-08-18T06:13:42.929Z,961.03
2022-08-18T06:14:42.941Z,960.99
2022-08-18T06:15:42.896Z,961.10
2022-08-18T06:16:44.502Z,961.10
2022-08-18T06:17:43.854Z,961.12
2022-08-18T06:18:42.861Z,961.13
2022-08-18T06:19:42.860Z,961.17
2022-08-18T06:20:42.841Z,961.20
2022-08-18T06:21:42.825Z,961.27
2022-08-18T06:22:52.185Z,961.24
2022-08-18T06:23:43.821Z,961.27
2022-08-18T06:24:42.809Z,961.30
2022-08-18T06:25:42.825Z,961.27
2022-08-18T06:26:42.775Z,961.26
2022-08-18T06:27:42.808Z,961.28
2022-08-18T06:28:42.755Z,961.29
2022-08-18T06:29:42.734Z,961.32
2022-08-18T06:30:42.745Z,961.38
2022-08-18T06:31:42.711Z,961.38
2022-08-18T06:32:42.705Z,961.35
2022-08-18T06:33:42.724Z,961.38
2022-08-18T06:34:42.691Z,961.40
2022-08-18T06:35:42.680Z,961.36
2022-08-18T06:36:42.673Z,961.29
2022-08-18T06:37:42.645Z,961.28
2022-08-18T06:38:45.463Z,961.25
2022-08-18T06:39:42.710Z,961.23
2022-08-18T06:40:42.613Z,961.26
2022-08-18T06:41:43.868Z,961.23
2022-08-18T06:42:42.590Z,961.23
2022-08-18T06:43:42.629Z,961.23
2022-08-18T06:44:42.573Z,961.24
2022-08-18T06:45:42.560Z,961.25
2022-08-18T06:46:42.546Z,961.32
2022-08-18T06:47:42.558Z,961.29
2022-08-18T06:48:42.564Z,961.37
2022-08-18T06:49:42.556Z,961.33
2022-08-18T06:50:43.610Z,961.36
2022-08-18T06:51:42.495Z,961.37
2022-08-18T06:52:42.518Z,961.34
2022-08-18T06:53:42.491Z,961.35
2022-08-18T06:54:42.451Z,961.29
2022-08-18T06:55:43.522Z,961.23
2022-08-18T06:56:42.435Z,961.20
2022-08-18T06:57:42.450Z,961.22
2022-08-18T06:58:42.448Z,961.18
2022-08-18T06:59:42.395Z,961.15
2022-08-18T07:00:42.436Z,961.12
2022-08-18T07:01:43.408Z,961.10
2022-08-18T07:02:42.380Z,961.11
2022-08-18T07:03:42.364Z,961.07
2022-08-18T07:04:42.343Z,961.07
2022-08-18T07:05:42.329Z,961.04
2022-08-18T07:06:42.319Z,961.03
2022-08-18T07:07:42.336Z,961.00
2022-08-18T07:08:42.318Z,960.93
2022-08-18T07:09:42.297Z,960.94
2022-08-18T07:10:42.300Z,960.89
2022-08-18T07:11:42.299Z,960.92
2022-08-18T07:12:42.248Z,960.89
2022-08-18T07:13:42.253Z,960.94
2022-08-18T07:14:42.236Z,960.98
2022-08-18T07:15:42.239Z,961.02
2022-08-18T07:16:59.371Z,960.95
2022-08-18T07:17:44.150Z,961.00
2022-08-18T07:18:42.214Z,960.98
2022-08-18T07:19:42.208Z,960.93
2022-08-18T07:20:42.168Z,960.89
2022-08-18T07:21:42.187Z,960.85
2022-08-18T07:22:42.137Z,960.86
2022-08-18T07:23:42.130Z,960.87
2022-08-18T07:24:42.116Z,960.83
2022-08-18T07:25:42.104Z,960.85
2022-08-18T07:26:42.141Z,960.80
2022-08-18T07:27:42.102Z,960.80
2022-08-18T07:28:42.134Z,960.76
2022-08-18T07:29:42.072Z,960.73
2022-08-18T07:31:00.322Z,960.65
2022-08-18T07:31:43.069Z,960.62
2022-08-18T07:32:42.077Z,960.57
2022-08-18T07:33:42.018Z,960.54
2022-08-18T07:34:42.002Z,960.54
2022-08-18T07:35:42.994Z,960.50
2022-08-18T07:36:41.996Z,960.55
2022-08-18T07:37:41.982Z,960.53
2022-08-18T07:38:43.805Z,960.53
2022-08-18T07:39:43.991Z,960.53
2022-08-18T07:40:42.942Z,960.62
2022-08-18T07:41:41.928Z,960.62
2022-08-18T07:42:56.780Z,960.68
2022-08-18T07:43:42.947Z,960.70
2022-08-18T07:44:41.894Z,960.75
2022-08-18T07:45:41.887Z,960.64
2022-08-18T07:46:41.868Z,960.64
2022-08-18T07:47:41.866Z,960.66
2022-08-18T07:48:41.856Z,960.66
2022-08-18T07:49:59.738Z,960.69
2022-08-18T07:50:58.218Z,960.75
2022-08-18T07:51:42.823Z,960.75
2022-08-18T07:52:47.179Z,960.74
2022-08-18T07:53:42.798Z,960.73
2022-08-18T07:54:49.288Z,960.72
2022-08-18T07:55:42.769Z,960.72
2022-08-18T07:56:41.759Z,960.76
2022-08-18T07:57:42.272Z,960.76
2022-08-18T07:58:41.745Z,960.76
2022-08-18T07:59:41.724Z,960.74
2022-08-18T08:00:58.270Z,960.82
2022-08-18T08:01:42.780Z,960.70
2022-08-18T08:02:41.738Z,960.71
2022-08-18T08:03:41.678Z,960.69
2022-08-18T08:04:41.682Z,960.71
2022-08-18T08:05:41.665Z,960.72
2022-08-18T08:06:45.113Z,960.72
2022-08-18T08:07:42.661Z,960.68
2022-08-18T08:08:41.631Z,960.70
2022-08-18T08:09:41.617Z,960.67
2022-08-18T08:10:41.604Z,960.67
2022-08-18T08:11:41.625Z,960.75
2022-08-18T08:12:41.622Z,960.81
2022-08-18T08:13:55.338Z,960.75
2022-08-18T08:14:42.573Z,960.77
2022-08-18T08:15:41.546Z,960.74
2022-08-18T08:16:41.536Z,960.77
2022-08-18T08:17:41.533Z,960.79
2022-08-18T08:18:41.555Z,960.72
2022-08-18T08:20:00.142Z,960.75
2022-08-18T08:20:42.501Z,960.71
2022-08-18T08:21:41.493Z,960.72
2022-08-18T08:22:41.477Z,960.73
2022-08-18T08:23:45.077Z,960.78
2022-08-18T08:24:41.490Z,960.73
2022-08-18T08:25:48.054Z,960.74
2022-08-18T08:26:42.425Z,960.68
2022-08-18T08:27:41.411Z,960.64
2022-08-18T08:28:41.418Z,960.62
2022-08-18T08:29:41.425Z,960.62
2022-08-18T08:30:42.154Z,960.57
2022-08-18T08:31:41.369Z,960.64
2022-08-18T08:32:41.369Z,960.66
2022-08-18T08:33:41.348Z,960.67
2022-08-18T08:34:41.355Z,960.68
2022-08-18T08:35:49.753Z,960.69
2022-08-18T08:36:42.365Z,960.73
2022-08-18T08:37:41.555Z,960.76
2022-08-18T08:38:43.119Z,960.78
2022-08-18T08:39:41.323Z,960.80
2022-08-18T08:40:42.911Z,960.79
2022-08-18T08:41:41.258Z,960.78
2022-08-18T08:42:41.281Z,960.81
2022-08-18T08:43:41.235Z,960.78
2022-08-18T08:44:58.165Z,960.73
2022-08-18T08:45:42.211Z,960.65
2022-08-18T08:46:41.200Z,960.62
2022-08-18T08:47:41.228Z,960.58
2022-08-18T08:48:41.206Z,960.54
2022-08-18T08:49:41.197Z,960.51
2022-08-18T08:50:41.159Z,960.48
2022-08-18T08:51:41.172Z,960.41
2022-08-18T08:52:41.137Z,960.39
2022-08-18T08:53:41.123Z,960.43
2022-08-18T08:54:41.112Z,960.48
2022-08-18T08:55:41.128Z,960.49
2022-08-18T08:56:49.148Z,960.48
2022-08-18T08:57:41.095Z,960.43
2022-08-18T08:58:41.109Z,960.42
2022-08-18T08:59:41.055Z,960.32
2022-08-18T09:00:41.106Z,960.26
2022-08-18T09:01:41.070Z,960.23
2022-08-18T09:02:48.919Z,960.18
2022-08-18T09:03:42.016Z,960.15
2022-08-18T09:04:54.805Z,960.17
2022-08-18T09:05:42.015Z,960.22
2022-08-18T09:06:40.991Z,960.23
2022-08-18T09:07:40.977Z,960.22
2022-08-18T09:08:40.969Z,960.27
2022-08-18T09:09:40.993Z,960.23
2022-08-18T09:10:40.931Z,960.17
2022-08-18T09:11:40.919Z,960.18
2022-08-18T09:12:40.915Z,960.16
2022-08-18T09:13:40.912Z,960.07
2022-08-18T09:14:40.889Z,960.05
2022-08-18T09:15:40.914Z,960.05
2022-08-18T09:16:40.895Z,960.05
2022-08-18T09:17:40.863Z,960.10
2022-08-18T09:18:40.855Z,960.12
2022-08-18T09:19:40.879Z,960.09
2022-08-18T09:20:41.579Z,960.09
2022-08-18T09:21:40.813Z,960.07
2022-08-18T09:22:40.799Z,960.04
2022-08-18T09:23:40.799Z,960.10
2022-08-18T09:24:40.819Z,960.08
2022-08-18T09:25:40.787Z,960.07
2022-08-18T09:26:40.755Z,960.10
2022-08-18T09:28:08.832Z,960.16
2022-08-18T09:28:41.732Z,960.24
2022-08-18T09:29:43.983Z,960.26
2022-08-18T09:30:40.747Z,960.38
2022-08-18T09:31:40.744Z,960.39
2022-08-18T09:32:40.687Z,960.33
2022-08-18T09:33:40.677Z,960.36
2022-08-18T09:34:40.666Z,960.34
2022-08-18T09:35:40.656Z,960.27
2022-08-18T09:36:40.689Z,960.23
2022-08-18T09:37:41.348Z,960.19
2022-08-18T09:38:40.668Z,960.15
2022-08-18T09:39:40.738Z,960.18
2022-08-18T09:41:01.920Z,960.29
2022-08-18T09:41:41.623Z,960.30
2022-08-18T09:43:41.567Z,960.37
2022-08-18T09:44:40.553Z,960.35
2022-08-18T09:45:40.547Z,960.36
2022-08-18T09:46:40.541Z,960.38
2022-08-18T09:47:40.566Z,960.34
2022-08-18T09:48:43.106Z,960.37
2022-08-18T09:49:41.494Z,960.33
2022-08-18T09:50:41.562Z,960.31
2022-08-18T09:51:41.315Z,960.33
2022-08-18T09:52:40.469Z,960.31
2022-08-18T09:53:40.487Z,960.27
2022-08-18T09:54:40.440Z,960.28
2022-08-18T09:55:40.428Z,960.27
2022-08-18T09:56:53.830Z,960.25
2022-08-18T09:57:43.782Z,960.23
2022-08-18T09:58:40.424Z,960.21
2022-08-18T09:59:40.414Z,960.17
2022-08-18T10:00:40.374Z,960.16
2022-08-18T10:01:40.631Z,960.20
2022-08-18T10:02:40.366Z,960.21
2022-08-18T10:03:40.339Z,960.19
2022-08-18T10:04:40.350Z,960.21
2022-08-18T10:05:40.354Z,960.25
2022-08-18T10:06:42.905Z,960.33
2022-08-18T10:07:43.326Z,960.32
2022-08-18T10:08:42.918Z,960.29
2022-08-18T10:09:40.657Z,960.27
2022-08-18T10:11:01.004Z,960.25
2022-08-18T10:11:41.278Z,960.21
2022-08-18T10:12:40.334Z,960.13
2022-08-18T10:13:43.810Z,960.14
2022-08-18T10:14:41.230Z,960.05
2022-08-18T10:15:40.219Z,960.04
2022-08-18T10:17:13.191Z,960.05
2022-08-18T10:18:41.189Z,960.05
2022-08-18T10:19:40.324Z,960.13
2022-08-18T10:20:41.316Z,960.08
2022-08-18T10:21:40.148Z,960.10
2022-08-18T10:22:40.180Z,960.08
2022-08-18T10:23:48.002Z,960.10
2022-08-18T10:24:41.116Z,960.10
2022-08-18T10:25:41.075Z,960.10
2022-08-18T10:26:40.095Z,960.08
2022-08-18T10:27:41.111Z,960.13
2022-08-18T10:28:40.058Z,960.11
2022-08-18T10:29:40.075Z,960.15
2022-08-18T10:30:56.629Z,960.13
2022-08-18T10:31:41.036Z,960.18
2022-08-18T10:32:40.031Z,960.18
2022-08-18T10:33:40.002Z,960.18
2022-08-18T10:34:40.032Z,960.13
2022-08-18T10:35:40.978Z,960.21
2022-08-18T10:36:40.172Z,960.13
2022-08-18T10:37:39.969Z,960.14
2022-08-18T10:38:39.959Z,960.14
2022-08-18T10:40:40.933Z,960.13
2022-08-18T10:41:41.488Z,960.13
2022-08-18T10:42:39.903Z,960.13
2022-08-18T10:43:45.686Z,960.10
2022-08-18T10:44:40.884Z,960.12
2022-08-18T10:45:39.909Z,960.10
2022-08-18T10:46:42.500Z,960.13
2022-08-18T10:47:40.853Z,960.16
2022-08-18T10:48:40.228Z,960.10
2022-08-18T10:49:46.693Z,960.10
2022-08-18T10:50:40.819Z,960.04
2022-08-18T10:51:59.929Z,959.97
2022-08-18T10:52:46.301Z,959.97
2022-08-18T10:53:44.404Z,959.98
2022-08-18T10:54:51.212Z,959.92
2022-08-18T10:56:40.770Z,959.95
2022-08-18T10:57:39.795Z,959.92
2022-08-18T10:58:39.726Z,959.90
2022-08-18T10:59:49.033Z,959.89
2022-08-18T11:00:40.701Z,959.88
2022-08-18T11:01:39.744Z,959.90
2022-08-18T11:02:39.681Z,959.87
2022-08-18T11:04:40.676Z,959.87
2022-08-18T11:05:39.660Z,959.80
2022-08-18T11:06:39.654Z,959.79
2022-08-18T11:07:39.781Z,959.74
2022-08-18T11:08:39.613Z,959.72
2022-08-18T11:09:45.893Z,959.79
2022-08-18T11:10:57.522Z,959.80
2022-08-18T11:11:41.381Z,959.81
2022-08-18T11:12:39.583Z,959.80
2022-08-18T11:13:39.554Z,959.79
2022-08-18T11:14:39.572Z,959.76
2022-08-18T11:15:39.614Z,959.76
2022-08-18T11:16:41.642Z,959.80
2022-08-18T11:17:40.466Z,959.77
2022-08-18T11:18:42.925Z,959.78
2022-08-18T11:19:41.992Z,959.79
2022-08-18T11:20:39.486Z,959.82
2022-08-18T11:21:42.605Z,959.86
2022-08-18T11:22:39.471Z,959.80
2022-08-18T11:23:39.455Z,959.80
2022-08-18T11:24:39.432Z,959.72
2022-08-18T11:25:39.419Z,959.67
2022-08-18T11:26:39.546Z,959.66
2022-08-18T11:27:40.358Z,959.62
2022-08-18T11:28:45.849Z,959.63
2022-08-18T11:29:40.416Z,959.70
2022-08-18T11:30:40.209Z,959.63
2022-08-18T11:31:39.352Z,959.63
2022-08-18T11:32:51.426Z,959.62
2022-08-18T11:33:40.345Z,959.69
2022-08-18T11:34:39.337Z,959.71
2022-08-18T11:35:40.363Z,959.71
2022-08-18T11:36:39.304Z,959.69
2022-08-18T11:38:42.088Z,959.55
2022-08-18T11:39:39.340Z,959.52
2022-08-18T11:41:48.443Z,959.40
2022-08-18T11:42:40.239Z,959.34
2022-08-18T11:43:42.430Z,959.26
2022-08-18T11:44:39.208Z,959.26
2022-08-18T11:45:39.219Z,959.22
2022-08-18T11:46:39.217Z,959.24
2022-08-18T11:47:39.174Z,959.30
2022-08-18T11:48:51.687Z,959.21
2022-08-18T11:49:40.162Z,959.14
2022-08-18T11:50:39.146Z,959.06
2022-08-18T11:51:40.175Z,959.05
2022-08-18T11:52:39.124Z,959.07
2022-08-18T11:53:39.111Z,959.08
2022-08-18T11:54:39.101Z,959.15
2022-08-18T11:55:40.116Z,959.21
2022-08-18T11:56:40.097Z,959.20
2022-08-18T11:57:39.102Z,959.21
2022-08-18T11:58:40.050Z,959.20
2022-08-18T11:59:52.632Z,959.19
2022-08-18T12:00:42.682Z,959.16
2022-08-18T12:01:42.128Z,959.13
2022-08-18T12:02:39.044Z,959.07
2022-08-18T12:03:39.017Z,959.07
2022-08-18T12:04:39.031Z,958.96
2022-08-18T12:05:45.997Z,958.89
2022-08-18T12:06:39.982Z,958.87
2022-08-18T12:07:38.954Z,958.77
2022-08-18T12:08:58.058Z,958.75
2022-08-18T12:10:39.959Z,958.68
2022-08-18T12:11:41.370Z,958.70
2022-08-18T12:12:38.911Z,958.71
2022-08-18T12:13:38.931Z,958.68
2022-08-18T12:14:39.016Z,958.67
2022-08-18T12:15:46.444Z,958.63
2022-08-18T12:16:39.858Z,958.58
2022-08-18T12:17:38.890Z,958.50
2022-08-18T12:18:38.861Z,958.51
2022-08-18T12:19:38.834Z,958.39
2022-08-18T12:20:38.839Z,958.37
2022-08-18T12:21:38.851Z,958.37
2022-08-18T12:22:38.819Z,958.38
2022-08-18T12:23:49.569Z,958.38
2022-08-18T12:24:40.085Z,958.44
2022-08-18T12:25:38.917Z,958.37
2022-08-18T12:27:39.768Z,958.31
2022-08-18T12:28:38.802Z,958.25
2022-08-18T12:29:43.495Z,958.30
2022-08-18T12:30:42.294Z,958.32
2022-08-18T12:31:42.793Z,958.32
2022-08-18T12:32:48.906Z,958.34
2022-08-18T12:33:48.375Z,958.35
2022-08-18T12:34:39.665Z,958.44
2022-08-18T12:35:41.935Z,958.42
2022-08-18T12:36:38.651Z,958.46
2022-08-18T12:38:39.608Z,958.52